Time;durP1;ratioP1;P1;durP2;ratioP2;P2;SDS_P1;SDS_P2;PMS_P1;PMS_P2;Temp;Humidity;BMP_temperature;BMP_pressure;BME280_temperature;BME280_humidity;BME280_pressure;Samples;Min_cycle;Max_cycle;Signal;HPM_P1;HPM_P2
2022/09/16 00:01:45;;;;;;;0.68;0.30;;;;;;;21.16;49.79;100922.16;5042390;28;20040;-59
2022/09/16 00:04:10;;;;;;;0.73;0.50;;;;;;;21.16;49.96;100930.28;5032436;28;20080;-59
2022/09/16 00:06:36;;;;;;;0.57;0.30;;;;;;;21.16;49.75;100933.00;5031869;28;20033;-59
2022/09/16 00:09:01;;;;;;;0.80;0.63;;;;;;;21.16;49.55;100924.03;5043916;28;20053;-59
2022/09/16 00:11:27;;;;;;;0.43;0.30;;;;;;;21.14;49.76;100926.91;5045588;28;20029;-59
2022/09/16 00:13:53;;;;;;;0.50;0.30;;;;;;;21.13;49.92;100930.63;5031205;28;20025;-60
2022/09/16 00:16:21;;;;;;;0.95;0.40;;;;;;;21.14;49.73;100935.03;5042579;28;20093;-59
2022/09/16 00:18:46;;;;;;;1.73;0.50;;;;;;;21.13;49.86;100929.81;5030507;28;20036;-60
2022/09/16 00:21:12;;;;;;;0.68;0.47;;;;;;;21.12;49.72;100934.38;5037389;28;20054;-59
2022/09/16 00:23:37;;;;;;;2.50;0.95;;;;;;;21.12;49.93;100934.38;5038676;28;20029;-59
2022/09/16 00:26:03;;;;;;;0.40;0.40;;;;;;;21.12;49.93;100936.25;5029884;28;20022;-60
2022/09/16 00:28:28;;;;;;;1.27;0.30;;;;;;;21.09;49.84;100929.31;5032353;28;20121;-60
2022/09/16 00:30:57;;;;;;;0.65;0.30;;;;;;;21.08;49.78;100926.81;5031415;28;20037;-59
2022/09/16 00:33:23;;;;;;;1.40;0.50;;;;;;;21.09;49.79;100929.31;5049922;28;20019;-59
2022/09/16 00:35:48;;;;;;;1.48;0.55;;;;;;;21.09;49.67;100928.50;5052791;28;20061;-59
2022/09/16 00:38:13;;;;;;;0.52;0.30;;;;;;;21.09;49.83;100926.63;5044374;28;20508;-60
2022/09/16 00:40:44;;;;;;;2.85;0.52;;;;;;;21.04;49.90;100917.38;5044889;28;20374;-60
2022/09/16 00:43:13;;;;;;;0.68;0.40;;;;;;;21.06;49.81;100926.97;5044460;28;20033;-59
2022/09/16 00:45:39;;;;;;;0.70;0.50;;;;;;;21.07;49.83;100933.22;5036129;28;20022;-60
2022/09/16 00:48:07;;;;;;;1.13;0.45;;;;;;;21.06;49.96;100928.84;5021481;28;20052;-58
2022/09/16 00:50:53;;;;;;;0.27;0.27;;;;;;;21.05;49.55;100919.06;5019434;28;20033;-59
2022/09/16 00:53:22;;;;;;;0.52;0.30;;;;;;;21.05;49.95;100924.47;5040570;28;20497;-59
2022/09/16 00:55:48;;;;;;;1.30;0.50;;;;;;;21.04;49.70;100925.50;5026997;28;20030;-59
2022/09/16 00:58:22;;;;;;;0.50;0.30;;;;;;;21.04;49.57;100928.19;5026122;28;20035;-59
2022/09/16 01:00:48;;;;;;;0.77;0.50;;;;;;;21.03;49.73;100918.41;5031846;28;20032;-59
2022/09/16 01:03:13;;;;;;;0.85;0.40;;;;;;;21.03;49.92;100918.41;5027762;28;20049;-59
2022/09/16 01:05:38;;;;;;;2.08;0.50;;;;;;;21.03;49.52;100921.13;5043647;28;20029;-59
2022/09/16 01:08:04;;;;;;;0.43;0.40;;;;;;;21.02;49.65;100917.56;5042413;28;20048;-59
2022/09/16 01:10:30;;;;;;;0.63;0.40;;;;;;;21.01;49.73;100923.16;5043931;28;20021;-59
2022/09/16 01:12:59;;;;;;;1.58;0.63;;;;;;;21.01;49.88;100926.69;5044249;28;20100;-59
2022/09/16 01:15:44;;;;;;;0.65;0.30;;;;;;;20.99;49.57;100922.50;5014838;28;20044;-59
2022/09/16 01:18:40;;;;;;;1.08;0.43;;;;;;;20.99;49.88;100928.75;5015695;28;20033;-59
2022/09/16 01:21:27;;;;;;;1.85;0.50;;;;;;;20.95;49.51;100930.97;5030497;28;20025;-59
2022/09/16 01:24:02;;;;;;;0.65;0.40;;;;;;;20.97;49.90;100942.44;5014012;28;20040;-59
2022/09/16 01:26:33;;;;;;;1.75;0.50;;;;;;;20.97;49.81;100947.84;5006065;28;20028;-59
2022/09/16 01:29:35;;;;;;;0.73;0.32;;;;;;;20.96;49.66;100939.91;5011179;28;20029;-59
2022/09/16 01:32:16;;;;;;;0.40;0.30;;;;;;;20.96;49.54;100934.50;5043683;28;20029;-59
2022/09/16 01:35:13;;;;;;;1.33;0.50;;;;;;;20.94;49.89;100940.09;5036354;28;20539;-59
2022/09/16 01:37:47;;;;;;;2.00;0.70;;;;;;;20.93;49.83;100924.88;4991492;28;20090;-59
2022/09/16 01:40:27;;;;;;;0.60;0.30;;;;;;;20.93;49.59;100933.00;5001702;28;20086;-59
2022/09/16 01:43:11;;;;;;;0.93;0.55;;;;;;;20.93;49.61;100929.47;4985389;28;20038;-59
2022/09/16 01:45:40;;;;;;;0.68;0.47;;;;;;;20.92;49.53;100928.63;4997014;28;20507;-59
2022/09/16 01:48:30;;;;;;;2.05;0.75;;;;;;;20.92;49.88;100922.38;4993010;28;20113;-59
2022/09/16 01:51:08;;;;;;;1.23;0.50;;;;;;;20.89;49.75;100920.03;4988435;28;20030;-59
2022/09/16 01:53:37;;;;;;;0.55;0.40;;;;;;;20.89;49.81;100920.88;5001398;28;20050;-59
2022/09/16 01:56:09;;;;;;;1.05;0.47;;;;;;;20.90;49.85;100913.63;4972888;28;20030;-59
2022/09/16 01:58:52;;;;;;;1.45;0.60;;;;;;;20.90;49.82;100910.94;4955861;28;20035;-59
2022/09/16 02:01:22;;;;;;;0.98;0.50;;;;;;;20.89;49.55;100910.06;4973206;28;20040;-59
2022/09/16 02:03:53;;;;;;;0.88;0.30;;;;;;;20.83;49.78;100910.78;4998265;28;20038;-57
2022/09/16 02:06:21;;;;;;;1.70;0.55;;;;;;;20.88;49.56;100913.78;4994536;28;20069;-59
2022/09/16 02:08:55;;;;;;;0.55;0.40;;;;;;;20.88;49.57;100916.50;4995706;28;20034;-60
2022/09/16 02:11:22;;;;;;;0.60;0.40;;;;;;;20.88;49.89;100902.97;4991780;28;20085;-59
2022/09/16 02:13:54;;;;;;;1.02;0.60;;;;;;;20.87;49.68;100914.81;5038979;28;20033;-59
2022/09/16 02:16:25;;;;;;;1.10;0.50;;;;;;;20.87;49.89;100911.28;5039100;28;20025;-59
2022/09/16 02:18:56;;;;;;;0.60;0.40;;;;;;;20.86;49.52;100907.75;5050766;28;20033;-60
2022/09/16 02:21:24;;;;;;;1.05;0.40;;;;;;;20.85;49.47;100911.44;5011500;28;20089;-59
2022/09/16 02:23:53;;;;;;;0.80;0.40;;;;;;;20.85;49.72;100916.84;5032242;28;20026;-58
2022/09/16 02:26:20;;;;;;;1.35;0.75;;;;;;;20.85;49.59;100916.00;5037498;28;20018;-59
2022/09/16 02:28:47;;;;;;;0.70;0.40;;;;;;;20.74;49.51;100892.13;5015188;28;20032;-59
2022/09/16 02:31:13;;;;;;;1.80;0.45;;;;;;;20.84;49.75;100912.47;5028940;28;20026;-59
2022/09/16 02:34:11;;;;;;;0.55;0.50;;;;;;;20.84;49.84;100915.16;5024161;28;20032;-59
2022/09/16 02:36:38;;;;;;;1.90;0.50;;;;;;;20.83;49.95;100918.06;4995884;28;20037;-59
2022/09/16 02:39:08;;;;;;;0.40;0.30;;;;;;;20.82;49.86;100922.63;5036214;28;20054;-59
2022/09/16 02:41:34;;;;;;;1.48;0.50;;;;;;;20.80;49.54;100919.25;5025539;28;20021;-60
2022/09/16 02:44:00;;;;;;;2.75;0.40;;;;;;;20.82;49.85;100924.50;5021419;28;20121;-60
2022/09/16 02:46:39;;;;;;;1.27;0.50;;;;;;;20.81;49.53;100931.75;5023459;28;20036;-60
2022/09/16 02:49:17;;;;;;;0.75;0.40;;;;;;;20.81;49.65;100928.19;5034440;28;20022;-59
2022/09/16 02:52:01;;;;;;;0.52;0.40;;;;;;;20.81;49.66;100934.44;5014928;28;20487;-59
2022/09/16 02:54:35;;;;;;;0.75;0.40;;;;;;;20.80;49.61;100940.88;5036743;28;20026;-59
2022/09/16 02:57:00;;;;;;;0.75;0.30;;;;;;;20.71;49.78;100928.44;5040983;28;20056;-59
2022/09/16 02:59:25;;;;;;;0.73;0.47;;;;;;;20.79;49.91;100950.00;5017996;28;20068;-59
2022/09/16 03:01:51;;;;;;;0.63;0.40;;;;;;;20.72;49.66;100936.38;5014643;28;20032;-60
2022/09/16 03:04:18;;;;;;;0.43;0.30;;;;;;;20.78;49.73;100936.69;5039277;28;20358;-60
2022/09/16 03:06:44;;;;;;;1.58;0.70;;;;;;;20.76;49.50;100923.34;5039439;28;20035;-59
2022/09/16 03:09:12;;;;;;;0.70;0.40;;;;;;;20.74;49.59;100917.28;5051281;28;20020;-59
2022/09/16 03:11:56;;;;;;;0.75;0.45;;;;;;;20.77;49.59;100922.31;5065405;28;20544;-60
2022/09/16 03:14:30;;;;;;;1.08;0.60;;;;;;;20.76;49.59;100922.50;5026578;28;20014;-59
2022/09/16 03:17:14;;;;;;;0.68;0.45;;;;;;;20.76;49.85;100922.50;5058647;28;20063;-59
2022/09/16 03:19:39;;;;;;;0.70;0.50;;;;;;;20.75;49.92;100916.25;5045383;28;20025;-59
2022/09/16 03:22:23;;;;;;;0.47;0.30;;;;;;;20.75;49.65;100923.53;5046646;28;20056;-59
2022/09/16 03:25:21;;;;;;;0.95;0.40;;;;;;;20.74;49.96;100917.28;5034247;28;20032;-59
2022/09/16 03:27:53;;;;;;;0.85;0.40;;;;;;;20.67;49.63;100911.75;5041971;28;20046;-59
2022/09/16 03:30:18;;;;;;;0.30;0.30;;;;;;;20.65;49.72;100904.88;5019580;28;20109;-59
2022/09/16 03:32:48;;;;;;;0.70;0.40;;;;;;;20.64;49.70;100908.56;5031895;28;20025;-59
2022/09/16 03:35:36;;;;;;;0.98;0.60;;;;;;;20.71;49.57;100934.69;5013814;28;20108;-59
2022/09/16 03:38:02;;;;;;;0.40;0.30;;;;;;;20.71;49.45;100915.78;5032119;28;20030;-59
2022/09/16 03:40:28;;;;;;;0.80;0.50;;;;;;;20.71;49.78;100912.25;5038941;28;20118;-59
2022/09/16 03:42:56;;;;;;;1.45;0.60;;;;;;;20.70;49.84;100905.16;5021228;28;20478;-59
2022/09/16 03:45:22;;;;;;;1.10;0.43;;;;;;;20.69;49.53;100900.78;5031912;28;20017;-59
2022/09/16 03:47:48;;;;;;;0.55;0.40;;;;;;;20.69;49.95;100904.31;5034624;28;20041;-59
2022/09/16 03:50:14;;;;;;;1.10;0.50;;;;;;;20.69;49.93;100907.03;5038202;28;20033;-59
2022/09/16 03:52:40;;;;;;;1.67;0.60;;;;;;;20.64;49.64;100895.06;5035472;28;20021;-59
2022/09/16 03:55:06;;;;;;;0.85;0.50;;;;;;;20.69;49.60;100908.91;5031607;28;20116;-59
2022/09/16 03:57:32;;;;;;;0.68;0.30;;;;;;;20.68;49.54;100904.47;5038334;28;20025;-60
2022/09/16 03:59:57;;;;;;;1.60;0.70;;;;;;;20.68;49.99;100901.78;5038891;28;20021;-59
2022/09/16 04:02:22;;;;;;;0.95;0.50;;;;;;;20.67;49.99;100900.94;5031307;28;20028;-60
2022/09/16 04:04:48;;;;;;;1.25;0.35;;;;;;;20.66;49.78;100890.34;5033280;28;20290;-59
2022/09/16 04:07:14;;;;;;;1.25;0.40;;;;;;;20.66;49.55;100887.63;5039938;28;20028;-59
2022/09/16 04:09:40;;;;;;;0.68;0.40;;;;;;;20.66;49.76;100898.44;5045232;28;20056;-59
2022/09/16 04:12:06;;;;;;;0.57;0.50;;;;;;;20.65;49.97;100900.31;5045537;28;20033;-59
2022/09/16 04:14:32;;;;;;;0.55;0.40;;;;;;;20.65;49.77;100902.16;5045205;28;20024;-59
2022/09/16 04:16:57;;;;;;;1.83;0.40;;;;;;;20.65;49.84;100902.16;5045223;28;20029;-59
2022/09/16 04:19:23;;;;;;;1.75;0.40;;;;;;;20.64;49.98;100911.28;5044657;28;20068;-59
2022/09/16 04:21:48;;;;;;;0.60;0.40;;;;;;;20.58;49.71;100896.63;5044988;28;20029;-59
2022/09/16 04:24:14;;;;;;;1.42;0.43;;;;;;;20.63;49.69;100912.28;5048193;28;20024;-59
2022/09/16 04:26:40;;;;;;;0.50;0.40;;;;;;;20.53;49.67;100917.09;5055975;28;20032;-59
2022/09/16 04:29:05;;;;;;;0.73;0.40;;;;;;;20.62;49.53;100933.06;5044607;28;20041;-59
2022/09/16 04:31:30;;;;;;;0.88;0.40;;;;;;;20.62;50.16;100926.81;5044839;28;20037;-59
2022/09/16 04:33:56;;;;;;;0.98;0.43;;;;;;;20.62;49.89;100926.81;5035338;28;20123;-59
2022/09/16 04:36:21;;;;;;;1.02;0.40;;;;;;;20.61;49.79;100931.41;5038362;28;20038;-58
2022/09/16 04:38:47;;;;;;;1.25;0.50;;;;;;;20.61;49.61;100935.97;5031627;28;20049;-60
2022/09/16 04:41:21;;;;;;;1.95;0.77;;;;;;;20.61;49.74;100919.75;5031810;28;20021;-59
2022/09/16 04:43:52;;;;;;;0.93;0.50;;;;;;;20.60;49.98;100924.31;5024653;28;20457;-59
2022/09/16 04:46:18;;;;;;;0.30;0.30;;;;;;;20.56;49.74;100916.72;5037189;28;20550;-59
2022/09/16 04:48:46;;;;;;;1.45;0.50;;;;;;;20.57;49.61;100915.72;5043398;28;20052;-59
2022/09/16 04:51:12;;;;;;;1.33;0.50;;;;;;;20.59;49.69;100916.38;5043950;28;20159;-58
2022/09/16 04:53:40;;;;;;;6.43;0.95;;;;;;;20.59;50.12;100914.50;5026396;28;20022;-59
2022/09/16 04:56:14;;;;;;;1.03;0.50;;;;;;;20.58;49.87;100914.69;5043968;28;20029;-59
2022/09/16 04:58:43;;;;;;;1.67;0.50;;;;;;;20.57;49.76;100913.88;5041001;28;20110;-59
2022/09/16 05:01:13;;;;;;;2.08;0.65;;;;;;;20.56;50.08;100925.69;5024791;28;20041;-59
2022/09/16 05:03:42;;;;;;;1.33;0.60;;;;;;;20.56;50.27;100933.81;5031423;28;20062;-59
2022/09/16 05:06:12;;;;;;;3.08;0.68;;;;;;;20.54;50.35;100932.28;5040773;28;20029;-59
2022/09/16 05:08:38;;;;;;;1.65;0.70;;;;;;;20.55;50.17;100929.41;5043287;28;20060;-58
2022/09/16 05:11:06;;;;;;;1.75;0.50;;;;;;;20.55;50.10;100926.69;5043683;28;20029;-59
2022/09/16 05:13:31;;;;;;;1.02;0.60;;;;;;;20.44;50.32;100911.72;5042491;28;20071;-59
2022/09/16 05:16:04;;;;;;;0.93;0.57;;;;;;;20.53;50.12;100922.50;5043740;28;20623;-60
2022/09/16 05:18:30;;;;;;;1.10;0.70;;;;;;;20.54;50.21;100916.06;5041328;28;20308;-59
2022/09/16 05:20:57;;;;;;;1.10;0.40;;;;;;;20.53;50.13;100893.63;5043109;28;20517;-59
2022/09/16 05:23:22;;;;;;;0.65;0.43;;;;;;;20.54;50.22;100897.16;5045008;28;20022;-60
2022/09/16 05:25:48;;;;;;;2.05;0.55;;;;;;;20.53;50.55;100901.75;5044626;28;20044;-59
2022/09/16 05:28:13;;;;;;;0.98;0.60;;;;;;;20.53;50.37;100901.75;5044027;28;20025;-60
2022/09/16 05:30:38;;;;;;;1.88;0.80;;;;;;;20.49;50.29;100905.81;5042984;28;20447;-60
2022/09/16 05:33:03;;;;;;;1.13;0.57;;;;;;;20.51;50.32;100913.72;5045563;28;20073;-60
2022/09/16 05:35:29;;;;;;;1.40;0.50;;;;;;;20.53;50.56;100917.09;5039817;28;20029;-59
2022/09/16 05:37:54;;;;;;;1.10;0.55;;;;;;;20.53;50.81;100903.59;5044500;28;20028;-60
2022/09/16 05:40:19;;;;;;;1.10;0.73;;;;;;;20.53;50.76;100919.81;5042750;28;20066;-59
2022/09/16 05:42:47;;;;;;;2.45;0.70;;;;;;;20.53;50.44;100922.50;5042649;28;20036;-60
2022/09/16 05:45:13;;;;;;;0.70;0.50;;;;;;;20.54;50.51;100926.88;5042198;28;20401;-60
2022/09/16 05:47:38;;;;;;;2.40;0.75;;;;;;;20.52;50.53;100918.97;5042533;28;20053;-59
2022/09/16 05:50:04;;;;;;;0.80;0.40;;;;;;;20.52;50.75;100921.66;5041330;28;20029;-60
2022/09/16 05:52:29;;;;;;;1.33;0.63;;;;;;;20.51;50.73;100933.47;5042527;28;20120;-59
2022/09/16 05:54:55;;;;;;;1.27;0.57;;;;;;;20.52;50.72;100937.88;5043102;28;20052;-59
2022/09/16 05:57:20;;;;;;;0.90;0.57;;;;;;;20.56;50.80;100932.94;5042175;28;20061;-59
2022/09/16 05:59:45;;;;;;;2.35;0.50;;;;;;;20.55;51.06;100945.59;5041823;28;20029;-59
2022/09/16 06:02:11;;;;;;;2.22;0.43;;;;;;;20.59;51.15;100948.78;5042515;28;20099;-60
2022/09/16 06:04:36;;;;;;;0.70;0.47;;;;;;;20.60;51.05;100951.34;5041594;28;20489;-59
2022/09/16 06:07:02;;;;;;;1.27;0.60;;;;;;;20.59;51.04;100944.22;5042441;28;20099;-61
2022/09/16 06:09:28;;;;;;;0.40;0.20;;;;;;;20.33;50.85;100895.91;5042282;28;20034;-60
2022/09/16 06:11:54;;;;;;;0.65;0.40;;;;;;;20.58;51.10;100930.91;5025021;28;20077;-59
2022/09/16 06:14:21;;;;;;;1.13;0.55;;;;;;;20.57;50.92;100927.38;5045960;28;20036;-58
2022/09/16 06:16:47;;;;;;;0.88;0.50;;;;;;;20.57;50.95;100935.47;5047013;28;20105;-60
2022/09/16 06:19:16;;;;;;;1.17;0.40;;;;;;;20.57;51.17;100931.94;5045208;28;20021;-60
2022/09/16 06:21:43;;;;;;;1.20;0.40;;;;;;;20.57;51.03;100935.47;5038394;28;20026;-60
2022/09/16 06:24:09;;;;;;;1.55;0.60;;;;;;;20.49;50.78;100919.31;5046733;28;20037;-58
2022/09/16 06:26:39;;;;;;;2.97;0.65;;;;;;;20.57;50.66;100923.84;5046992;28;20110;-59
2022/09/16 06:29:05;;;;;;;3.05;1.17;;;;;;;20.55;50.71;100921.28;5046160;28;20081;-59
2022/09/16 06:31:31;;;;;;;3.70;0.90;;;;;;;20.53;51.00;100923.34;5047766;28;20017;-60
2022/09/16 06:33:56;;;;;;;4.25;1.30;;;;;;;20.55;50.80;100920.44;5049067;28;20086;-59
2022/09/16 06:36:33;;;;;;;4.15;0.90;;;;;;;20.57;50.95;100921.13;5048594;28;20056;-60
2022/09/16 06:38:58;;;;;;;2.47;0.90;;;;;;;20.56;50.63;100919.44;5046442;28;20047;-60
2022/09/16 06:41:24;;;;;;;3.50;0.82;;;;;;;20.55;50.79;100918.59;5046794;28;20026;-59
2022/09/16 06:43:52;;;;;;;2.75;0.80;;;;;;;20.54;51.09;100921.47;5047798;28;20029;-59
2022/09/16 06:46:19;;;;;;;2.42;0.73;;;;;;;20.50;50.68;100917.47;5046535;28;20064;-60
2022/09/16 06:48:46;;;;;;;3.38;0.80;;;;;;;20.56;50.99;100922.13;5043044;28;20029;-57
2022/09/16 06:51:21;;;;;;;2.50;0.70;;;;;;;20.56;50.71;100923.00;5044315;28;20079;-60
2022/09/16 06:53:48;;;;;;;1.98;1.10;;;;;;;20.56;50.89;100912.19;5032632;28;20053;-59
2022/09/16 06:56:15;;;;;;;2.53;0.80;;;;;;;20.58;50.73;100917.41;5037417;28;20033;-59
2022/09/16 06:58:42;;;;;;;3.25;0.77;;;;;;;20.57;50.75;100913.88;5032078;28;20033;-60
2022/09/16 07:01:12;;;;;;;1.95;1.13;;;;;;;20.56;50.83;100920.28;5036996;28;20104;-59
2022/09/16 07:03:40;;;;;;;1.63;0.70;;;;;;;20.55;50.87;100909.66;5036897;28;20033;-60
2022/09/16 07:06:07;;;;;;;1.67;0.70;;;;;;;20.57;50.51;100919.25;5031966;28;20044;-59
2022/09/16 07:08:33;;;;;;;3.60;0.95;;;;;;;20.57;50.66;100921.97;5042973;28;20078;-59
2022/09/16 07:11:05;;;;;;;5.18;1.23;;;;;;;20.53;50.48;100917.94;5045941;28;20029;-58
2022/09/16 07:13:30;;;;;;;2.53;0.80;;;;;;;20.57;50.58;100924.66;5043342;28;20088;-59
2022/09/16 07:16:00;;;;;;;3.08;1.00;;;;;;;20.58;50.67;100933.59;5034371;28;20029;-59
2022/09/16 07:18:26;;;;;;;2.25;0.65;;;;;;;20.58;50.33;100926.34;5044800;28;20034;-58
2022/09/16 07:20:51;;;;;;;6.00;1.02;;;;;;;20.57;50.52;100923.84;5032734;28;20037;-57
2022/09/16 07:23:16;;;;;;;2.42;1.10;;;;;;;20.58;50.47;100928.22;5032885;28;20026;-59
2022/09/16 07:25:42;;;;;;;2.58;0.60;;;;;;;20.58;50.43;100920.09;5039155;28;20446;-56
2022/09/16 07:28:07;;;;;;;3.47;0.93;;;;;;;20.59;50.03;100924.47;5041879;28;20041;-59
2022/09/16 07:30:33;;;;;;;3.05;0.95;;;;;;;20.61;50.09;100934.09;5055348;28;20117;-59
2022/09/16 07:32:58;;;;;;;3.08;0.68;;;;;;;20.57;49.98;100945.44;5055003;28;20100;-59
2022/09/16 07:35:23;;;;;;;4.03;1.60;;;;;;;20.62;50.27;100965.50;5059870;28;20087;-58
2022/09/16 07:37:49;;;;;;;3.80;1.00;;;;;;;20.60;49.86;100961.28;5049083;28;20112;-57
2022/09/16 07:40:16;;;;;;;2.75;0.70;;;;;;;20.59;50.30;100968.53;5043869;28;20021;-60
2022/09/16 07:42:41;;;;;;;1.73;0.80;;;;;;;20.56;50.13;100963.50;5045702;28;20049;-60
2022/09/16 07:45:07;;;;;;;2.63;0.80;;;;;;;20.56;50.47;100959.94;5045600;28;20029;-59
2022/09/16 07:47:33;;;;;;;1.45;0.70;;;;;;;20.55;50.08;100952.88;5045459;28;20029;-60
2022/09/16 07:49:58;;;;;;;1.60;0.73;;;;;;;20.53;50.29;100942.25;5044161;28;20048;-59
2022/09/16 07:52:28;;;;;;;1.65;0.60;;;;;;;20.54;50.35;100943.09;5045702;28;20036;-60
2022/09/16 07:54:57;;;;;;;2.45;0.90;;;;;;;20.51;50.09;100930.78;5032035;28;20021;-58
2022/09/16 07:57:23;;;;;;;1.27;0.70;;;;;;;20.55;50.30;100948.31;5045640;28;20021;-59
2022/09/16 07:59:48;;;;;;;1.10;0.50;;;;;;;20.55;50.03;100945.59;5031088;28;20043;-58
2022/09/16 08:02:13;;;;;;;1.60;0.47;;;;;;;20.57;50.17;100951.69;5045190;28;20026;-59
2022/09/16 08:04:39;;;;;;;3.03;0.80;;;;;;;20.58;49.85;100955.22;5030088;28;20104;-59
2022/09/16 08:07:05;;;;;;;1.80;0.70;;;;;;;20.59;50.31;100952.31;5045642;28;20057;-59
2022/09/16 08:09:30;;;;;;;2.15;1.30;;;;;;;20.60;50.19;100953.16;5044423;28;20014;-59
2022/09/16 08:11:55;;;;;;;3.58;0.80;;;;;;;20.62;50.04;100956.53;5039686;28;20044;-59
2022/09/16 08:14:20;;;;;;;1.85;0.73;;;;;;;20.66;50.21;100976.78;5045005;28;20017;-59
2022/09/16 08:16:50;;;;;;;1.40;0.77;;;;;;;20.69;49.65;100974.56;5032055;28;20639;-59
2022/09/16 08:19:15;;;;;;;2.17;0.60;;;;;;;20.70;49.86;100976.25;5018802;28;20021;-59
2022/09/16 08:21:40;;;;;;;0.88;0.40;;;;;;;20.71;49.60;100993.28;5041637;28;20105;-59
2022/09/16 08:24:06;;;;;;;2.75;0.82;;;;;;;20.69;49.73;100977.28;5033813;28;20037;-59
2022/09/16 08:26:31;;;;;;;1.23;0.60;;;;;;;20.66;49.88;100963.28;5035184;28;20022;-59
2022/09/16 08:28:56;;;;;;;2.63;0.60;;;;;;;20.66;49.65;100966.81;5038073;28;20021;-59
2022/09/16 08:31:21;;;;;;;1.33;0.50;;;;;;;20.66;49.82;100964.13;5037019;28;20381;-59
2022/09/16 08:33:47;;;;;;;3.10;0.88;;;;;;;20.40;49.71;100918.50;5026330;28;20070;-59
2022/09/16 08:36:14;;;;;;;2.03;0.70;;;;;;;20.74;49.90;100962.38;5043909;28;20048;-59
2022/09/16 08:38:41;;;;;;;1.92;0.88;;;;;;;20.80;49.40;100961.66;5030619;28;20045;-59
2022/09/16 08:41:51;;;;;;;1.08;0.50;;;;;;;20.85;49.45;100956.53;5030253;28;20090;-59
2022/09/16 08:44:41;;;;;;;0.93;0.45;;;;;;;20.92;49.43;100957.50;4963200;28;20023;-58
2022/09/16 08:47:27;;;;;;;1.02;0.52;;;;;;;20.97;49.01;100952.41;4947520;29;20047;-58
2022/09/16 08:49:53;;;;;;;2.20;0.70;;;;;;;21.03;48.96;100959.81;4962479;28;20062;-59
2022/09/16 08:52:36;;;;;;;1.02;0.50;;;;;;;21.09;48.63;100955.53;4963688;29;20151;-59
2022/09/16 08:55:05;;;;;;;1.73;0.68;;;;;;;21.17;48.67;100960.88;4935681;29;20035;-58
2022/09/16 08:57:34;;;;;;;1.60;0.52;;;;;;;21.22;48.67;100947.63;4963574;29;20039;-58
2022/09/16 09:00:14;;;;;;;1.10;0.70;;;;;;;21.29;48.22;100945.03;4934477;29;20512;-59
2022/09/16 09:03:20;;;;;;;2.25;0.60;;;;;;;21.31;48.22;100934.88;4963186;29;20066;-59
2022/09/16 09:05:53;;;;;;;2.78;0.52;;;;;;;21.45;47.76;100947.59;4942967;29;20044;-58
2022/09/16 09:08:38;;;;;;;2.85;0.80;;;;;;;21.46;47.71;100947.44;4943997;29;20028;-59
2022/09/16 09:11:15;;;;;;;1.77;0.55;;;;;;;21.49;47.52;100954.31;4944023;29;20103;-58
2022/09/16 09:13:51;;;;;;;1.70;0.50;;;;;;;21.47;47.95;100956.38;4940842;29;20031;-59
2022/09/16 09:16:33;;;;;;;1.20;0.80;;;;;;;21.34;47.87;100951.59;4943573;29;20039;-59
2022/09/16 09:19:28;;;;;;;1.77;0.60;;;;;;;21.36;47.94;100971.19;4982923;28;20697;-58
2022/09/16 09:22:04;;;;;;;1.30;0.80;;;;;;;21.31;48.12;100967.31;5000840;28;20049;-60
2022/09/16 09:24:37;;;;;;;1.67;0.57;;;;;;;21.15;48.06;100952.06;5001849;28;20072;-59
2022/09/16 09:27:13;;;;;;;2.50;0.63;;;;;;;21.21;48.40;100983.81;4977498;28;20045;-60
2022/09/16 09:29:58;;;;;;;2.13;0.73;;;;;;;21.16;48.58;100980.81;4985514;28;20042;-59
2022/09/16 09:32:42;;;;;;;3.58;1.27;;;;;;;21.13;48.47;100979.31;4986943;28;20057;-59
2022/09/16 09:35:25;;;;;;;2.08;0.80;;;;;;;21.12;48.44;100969.53;4998902;28;20042;-59
2022/09/16 09:38:00;;;;;;;1.35;0.80;;;;;;;21.11;48.51;100972.38;5034007;28;20029;-59
2022/09/16 09:40:33;;;;;;;2.65;0.70;;;;;;;21.11;48.85;100965.16;5040518;28;20052;-58
2022/09/16 09:43:15;;;;;;;5.22;0.85;;;;;;;21.02;48.54;100936.47;5034781;28;20041;-57
2022/09/16 09:46:01;;;;;;;1.80;0.80;;;;;;;21.19;48.55;100956.09;5029256;28;20026;-58
2022/09/16 09:48:32;;;;;;;3.25;0.77;;;;;;;21.25;48.50;100965.38;5025140;28;20029;-57
2022/09/16 09:51:01;;;;;;;1.77;0.80;;;;;;;21.26;47.99;101005.72;5022560;28;20112;-58
2022/09/16 09:53:37;;;;;;;;;;;;;;;21.25;48.26;100992.41;5015279;28;20084;-58
2022/09/16 09:56:24;;;;;;;1.15;0.57;;;;;;;21.19;48.30;101007.47;5043269;28;20401;-58
2022/09/16 09:59:00;;;;;;;3.63;0.80;;;;;;;21.14;48.25;101007.19;5025558;28;20033;-58
2022/09/16 10:01:25;;;;;;;2.33;0.60;;;;;;;21.09;48.48;101005.03;5042685;28;20025;-59
2022/09/16 10:03:53;;;;;;;3.05;0.82;;;;;;;21.05;48.52;100992.88;5042860;28;20028;-58
2022/09/16 10:06:25;;;;;;;1.07;0.60;;;;;;;21.00;48.52;100975.53;5025128;28;20024;-58
2022/09/16 10:08:53;;;;;;;1.83;0.75;;;;;;;20.97;48.83;100974.88;5032650;28;20117;-58
2022/09/16 10:11:24;;;;;;;1.40;0.50;;;;;;;20.89;48.75;100980.31;5025252;28;20134;-57
2022/09/16 10:13:56;;;;;;;2.13;0.90;;;;;;;20.95;48.55;101003.09;5025557;28;20060;-58
2022/09/16 10:16:25;;;;;;;2.08;0.70;;;;;;;20.97;48.97;100991.09;5034038;28;20037;-58
2022/09/16 10:18:58;;;;;;;1.92;0.50;;;;;;;21.00;48.86;100997.16;5038957;28;20029;-57
2022/09/16 10:21:24;;;;;;;1.77;0.82;;;;;;;21.04;48.85;100993.06;5040651;28;20021;-59
2022/09/16 10:23:56;;;;;;;3.05;0.70;;;;;;;21.09;48.30;100996.06;5024918;28;20738;-58
2022/09/16 10:26:24;;;;;;;3.28;0.73;;;;;;;21.12;48.21;100995.72;5042631;28;20525;-58
2022/09/16 10:28:58;;;;;;;3.05;0.63;;;;;;;21.13;48.17;100989.28;5042341;28;20025;-59
2022/09/16 10:31:26;;;;;;;1.38;0.60;;;;;;;21.21;48.18;101011.69;5041389;28;20056;-57
2022/09/16 10:33:52;;;;;;;1.85;0.60;;;;;;;21.26;48.06;101013.84;5036369;28;20499;-55
2022/09/16 10:36:20;;;;;;;3.08;0.60;;;;;;;21.19;48.18;100999.34;5028567;28;20038;-59
2022/09/16 10:38:52;;;;;;;2.40;0.70;;;;;;;21.22;48.30;101007.97;5010227;28;20064;-58
2022/09/16 10:41:23;;;;;;;2.53;0.60;;;;;;;21.20;48.50;100996.50;5017462;28;20280;-58
2022/09/16 10:43:51;;;;;;;1.95;0.57;;;;;;;21.19;48.50;100983.97;5022128;28;20490;-56
2022/09/16 10:46:17;;;;;;;3.35;0.60;;;;;;;21.18;48.55;100995.81;5041389;28;20037;-57
2022/09/16 10:48:43;;;;;;;1.50;0.93;;;;;;;21.16;48.68;100994.34;5031778;28;20036;-59
2022/09/16 10:51:21;;;;;;;2.40;0.65;;;;;;;21.13;48.66;101000.09;5052583;28;20037;-59
2022/09/16 10:53:52;;;;;;;3.08;1.00;;;;;;;21.10;48.68;101004.00;5034475;28;20081;-59
2022/09/16 10:56:19;;;;;;;2.15;0.70;;;;;;;21.08;48.74;100980.88;5042961;28;20151;-59
2022/09/16 10:58:45;;;;;;;2.97;0.80;;;;;;;21.04;48.50;100977.69;5048298;28;20048;-59
2022/09/16 11:01:55;;;;;;;1.50;0.50;;;;;;;20.99;48.80;100971.16;5048082;28;20095;-59
2022/09/16 11:04:25;;;;;;;1.40;0.50;;;;;;;20.95;48.81;100979.63;5018912;28;20056;-59
2022/09/16 11:07:14;;;;;;;2.20;0.77;;;;;;;20.91;48.70;101002.63;5056979;28;20025;-59
2022/09/16 11:10:01;;;;;;;1.70;0.63;;;;;;;20.88;48.87;101035.41;5042293;28;20094;-59
2022/09/16 11:12:36;;;;;;;2.17;0.70;;;;;;;20.86;48.95;101023.09;5044634;28;20029;-59
2022/09/16 11:15:30;;;;;;;1.40;0.50;;;;;;;20.82;49.03;100998.31;5023165;28;20044;-59
2022/09/16 11:18:12;;;;;;;0.98;0.60;;;;;;;20.80;49.05;100984.09;5045644;28;20053;-59
2022/09/16 11:21:05;;;;;;;3.17;1.08;;;;;;;20.80;49.12;100984.09;5024484;28;20014;-59
2022/09/16 11:24:01;;;;;;;2.40;0.82;;;;;;;20.77;49.33;100975.50;5044872;28;20022;-59
2022/09/16 11:26:30;;;;;;;3.55;0.60;;;;;;;20.80;49.25;100975.16;5045885;28;20086;-59
2022/09/16 11:29:05;;;;;;;1.30;0.70;;;;;;;20.81;48.89;100979.53;5045516;28;20026;-58
2022/09/16 11:31:49;;;;;;;1.77;0.60;;;;;;;20.82;49.30;100976.69;5045231;28;20029;-59
2022/09/16 11:34:39;;;;;;;4.00;0.85;;;;;;;20.81;48.96;100966.88;5028283;28;20104;-59
2022/09/16 11:37:10;;;;;;;1.88;0.70;;;;;;;20.88;48.87;100975.94;5032309;28;20032;-59
2022/09/16 11:39:59;;;;;;;3.83;0.68;;;;;;;20.93;49.00;100978.09;5036792;28;20108;-59
2022/09/16 11:42:40;;;;;;;5.00;1.05;;;;;;;20.94;48.59;100969.84;5022205;28;20025;-58